createdAt,value
2022-10-21T00:00:47.887Z,60.16
2022-10-21T00:03:17.522Z,60.43
2022-10-21T00:05:46.772Z,61.10
2022-10-21T00:08:18.611Z,60.66
2022-10-21T00:10:57.343Z,60.55
2022-10-21T00:13:26.169Z,60.71
2022-10-21T00:15:59.307Z,60.71
2022-10-21T00:18:27.580Z,61.09
2022-10-21T00:21:07.158Z,60.61
2022-10-21T00:23:36.844Z,60.76
2022-10-21T00:26:07.023Z,60.47
2022-10-21T00:28:38.773Z,60.81
2022-10-21T00:31:08.084Z,61.02
2022-10-21T00:33:39.551Z,60.90
2022-10-21T00:36:08.911Z,60.90
2022-10-21T00:38:38.456Z,61.03
2022-10-21T00:41:08.850Z,60.91
2022-10-21T00:43:52.557Z,60.76
2022-10-21T00:46:25.737Z,60.82
2022-10-21T00:48:55.613Z,60.92
2022-10-21T00:51:27.875Z,60.85
2022-10-21T00:53:59.563Z,61.14
2022-10-21T00:56:31.199Z,60.90
2022-10-21T00:59:01.306Z,60.50
2022-10-21T01:01:30.587Z,60.42
2022-10-21T01:04:01.428Z,60.58
2022-10-21T01:06:30.394Z,60.96
2022-10-21T01:08:59.234Z,60.78
2022-10-21T01:11:30.722Z,61.01
2022-10-21T01:16:47.298Z,60.50
2022-10-21T01:19:24.438Z,60.60
2022-10-21T01:21:57.356Z,60.67
2022-10-21T01:24:41.730Z,60.89
2022-10-21T01:27:14.396Z,60.28
2022-10-21T01:29:50.658Z,60.78
2022-10-21T01:32:34.349Z,60.89
2022-10-21T01:35:09.864Z,61.15
2022-10-21T01:37:41.321Z,61.80
2022-10-21T01:40:10.630Z,61.31
2022-10-21T01:42:40.947Z,61.53
2022-10-21T01:45:11.139Z,61.09
2022-10-21T01:47:40.990Z,61.15
2022-10-21T01:50:13.039Z,61.84
2022-10-21T01:52:42.049Z,61.70
2022-10-21T01:55:16.108Z,61.60
2022-10-21T01:57:45.357Z,62.08
2022-10-21T02:00:15.612Z,61.42
2022-10-21T02:02:44.953Z,61.55
2022-10-21T02:05:19.352Z,61.63
2022-10-21T02:07:49.785Z,61.33
2022-10-21T02:10:30.355Z,61.67
2022-10-21T02:13:01.363Z,60.96
2022-10-21T02:15:30.241Z,61.10
2022-10-21T02:18:02.061Z,61.76
2022-10-21T02:20:33.222Z,61.09
2022-10-21T02:23:03.042Z,61.38
2022-10-21T02:25:33.089Z,61.49
2022-10-21T02:28:03.880Z,61.47
2022-10-21T02:30:36.411Z,61.14
2022-10-21T02:33:05.806Z,61.18
2022-10-21T02:35:37.293Z,61.47
2022-10-21T02:38:07.527Z,61.19
2022-10-21T02:40:37.971Z,61.92
2022-10-21T02:43:10.919Z,62.61
2022-10-21T02:45:39.463Z,62.15
2022-10-21T02:48:08.408Z,61.27
2022-10-21T02:50:38.324Z,60.87
2022-10-21T02:53:11.746Z,61.00
2022-10-21T02:55:40.329Z,60.86
2022-10-21T03:00:39.334Z,60.53
2022-10-21T03:03:12.606Z,60.26
2022-10-21T03:05:42.778Z,60.84
2022-10-21T03:08:14.885Z,60.82
2022-10-21T03:10:43.729Z,61.25
2022-10-21T03:13:15.049Z,60.88
2022-10-21T03:15:44.225Z,60.94
2022-10-21T03:18:18.420Z,61.01
2022-10-21T03:20:51.284Z,61.19
2022-10-21T03:23:30.951Z,61.59
2022-10-21T03:26:01.037Z,61.33
2022-10-21T03:28:30.496Z,61.48
2022-10-21T03:31:02.865Z,61.20
2022-10-21T03:33:31.344Z,61.62
2022-10-21T03:36:04.273Z,61.46
2022-10-21T03:38:32.786Z,61.12
2022-10-21T03:41:01.891Z,61.27
2022-10-21T03:43:32.679Z,61.52
2022-10-21T03:46:10.498Z,62.23
2022-10-21T03:48:38.734Z,62.61
2022-10-21T03:51:10.863Z,62.38
2022-10-21T03:53:43.278Z,62.70
2022-10-21T03:56:19.715Z,63.39
2022-10-21T03:58:48.818Z,63.03
2022-10-21T04:01:18.528Z,63.35
2022-10-21T04:03:54.578Z,63.47
2022-10-21T04:06:26.687Z,63.34
2022-10-21T04:09:05.706Z,65.20
2022-10-21T04:11:35.331Z,64.25
2022-10-21T04:14:03.899Z,64.58
2022-10-21T04:16:43.138Z,64.58
2022-10-21T04:19:13.087Z,64.61
2022-10-21T04:21:49.470Z,64.49
2022-10-21T04:24:23.004Z,64.15
2022-10-21T04:26:51.246Z,63.91
2022-10-21T04:29:20.861Z,63.31
2022-10-21T04:31:49.689Z,63.74
2022-10-21T04:34:18.693Z,63.98
2022-10-21T04:36:47.539Z,64.83
2022-10-21T04:39:17.520Z,64.69
2022-10-21T04:41:54.818Z,64.10
2022-10-21T04:44:27.082Z,63.65
2022-10-21T04:46:55.666Z,64.65
2022-10-21T04:49:24.482Z,63.79
2022-10-21T04:51:53.236Z,63.77
2022-10-21T04:54:22.821Z,63.27
2022-10-21T04:57:01.145Z,64.65
2022-10-21T04:59:31.480Z,64.77
2022-10-21T05:04:33.441Z,64.88
2022-10-21T05:07:05.091Z,65.22
2022-10-21T05:09:36.633Z,64.53
2022-10-21T05:12:05.628Z,64.03
2022-10-21T05:14:34.937Z,64.94
2022-10-21T05:17:03.176Z,63.94
2022-10-21T05:19:33.939Z,64.40
2022-10-21T05:22:02.418Z,63.77
2022-10-21T05:24:33.307Z,64.14
2022-10-21T05:27:05.765Z,63.72
2022-10-21T05:29:41.292Z,63.52
2022-10-21T05:32:09.784Z,62.76
2022-10-21T05:34:42.719Z,63.19
2022-10-21T05:37:11.246Z,63.31
2022-10-21T05:42:15.766Z,63.79
2022-10-21T05:44:44.220Z,63.64
2022-10-21T05:47:13.386Z,63.15
2022-10-21T05:49:44.364Z,63.27
2022-10-21T05:52:12.932Z,63.81
2022-10-21T05:54:45.304Z,62.91
2022-10-21T05:57:15.853Z,62.87
2022-10-21T05:59:53.467Z,63.84
2022-10-21T06:02:24.976Z,62.15
2022-10-21T06:04:57.724Z,62.77
2022-10-21T06:07:26.390Z,61.86
2022-10-21T06:10:04.927Z,62.30
2022-10-21T06:12:35.253Z,62.80
2022-10-21T06:15:05.017Z,63.10
2022-10-21T06:17:35.888Z,62.56
2022-10-21T06:20:07.106Z,62.04
2022-10-21T06:22:36.341Z,62.17
2022-10-21T06:25:05.449Z,62.51
2022-10-21T06:27:38.515Z,61.97
2022-10-21T06:30:07.715Z,61.48
2022-10-21T06:32:39.488Z,61.21
2022-10-21T06:35:08.292Z,60.79
2022-10-21T06:37:37.678Z,61.04
2022-10-21T06:40:08.766Z,61.67
2022-10-21T06:42:46.446Z,61.50
2022-10-21T06:45:14.992Z,61.05
2022-10-21T06:47:44.257Z,61.06
2022-10-21T06:50:14.268Z,60.93
2022-10-21T06:52:46.376Z,61.64
2022-10-21T06:55:14.938Z,61.15
2022-10-21T06:57:47.321Z,60.70
2022-10-21T07:00:16.808Z,60.46
2022-10-21T07:02:51.699Z,60.03
2022-10-21T07:05:20.291Z,60.41
2022-10-21T07:07:49.490Z,59.88
2022-10-21T07:10:18.068Z,60.37
2022-10-21T07:12:53.024Z,60.47
2022-10-21T07:15:23.198Z,59.76
2022-10-21T07:17:53.103Z,58.91
2022-10-21T07:20:22.522Z,59.20
2022-10-21T07:22:54.459Z,58.44
2022-10-21T07:25:23.284Z,58.01
2022-10-21T07:27:54.414Z,57.72
2022-10-21T07:30:24.765Z,57.87
2022-10-21T07:32:58.656Z,57.04
2022-10-21T07:35:27.501Z,56.33
2022-10-21T07:37:59.609Z,56.86
2022-10-21T07:40:29.345Z,55.66
2022-10-21T07:43:00.795Z,55.54
2022-10-21T07:45:30.720Z,55.90
2022-10-21T07:48:01.169Z,55.09
2022-10-21T07:50:29.707Z,55.60
2022-10-21T07:53:11.020Z,54.76
2022-10-21T07:55:47.472Z,54.54
2022-10-21T07:58:15.760Z,54.17
2022-10-21T08:00:46.352Z,54.56
2022-10-21T08:03:15.217Z,55.55
2022-10-21T08:05:47.913Z,54.68
2022-10-21T08:08:17.433Z,54.69
2022-10-21T08:13:19.868Z,53.53
2022-10-21T08:15:54.313Z,53.60
2022-10-21T08:18:23.169Z,53.84
2022-10-21T08:20:51.435Z,53.73
2022-10-21T08:23:20.459Z,54.48
2022-10-21T08:25:50.067Z,53.65
2022-10-21T08:28:20.996Z,53.55
2022-10-21T08:30:55.982Z,52.86
2022-10-21T08:33:25.919Z,52.72
2022-10-21T08:35:56.093Z,52.01
2022-10-21T08:38:24.481Z,52.32
2022-10-21T08:40:55.603Z,51.80
2022-10-21T08:43:24.966Z,50.90
2022-10-21T08:45:59.449Z,51.59
2022-10-21T08:48:39.867Z,51.03
2022-10-21T08:51:12.197Z,51.15
2022-10-21T08:53:44.770Z,50.73
2022-10-21T08:56:18.611Z,50.47
2022-10-21T08:58:52.279Z,49.69
2022-10-21T09:01:25.986Z,49.56
2022-10-21T09:03:58.502Z,50.12
2022-10-21T09:06:28.253Z,49.78
2022-10-21T09:09:02.222Z,49.48
2022-10-21T09:11:37.255Z,47.62
2022-10-21T09:14:16.248Z,47.76
2022-10-21T09:16:48.446Z,47.11
2022-10-21T09:19:23.857Z,47.45
2022-10-21T09:22:05.891Z,46.71
2022-10-21T09:24:46.746Z,48.30
2022-10-21T09:27:31.805Z,47.47
2022-10-21T09:30:14.011Z,47.69
2022-10-21T09:32:42.638Z,47.33
2022-10-21T09:35:15.387Z,46.02
2022-10-21T09:37:46.129Z,46.39
2022-10-21T09:40:16.646Z,46.05
2022-10-21T09:42:50.226Z,45.10
2022-10-21T09:45:30.327Z,45.20
2022-10-21T09:47:59.663Z,45.07
2022-10-21T09:53:06.902Z,45.16
2022-10-21T09:55:39.222Z,45.08
2022-10-21T09:58:12.735Z,44.92
2022-10-21T10:00:42.182Z,44.42
2022-10-21T10:03:17.168Z,43.61
2022-10-21T10:05:48.879Z,42.89
2022-10-21T10:08:28.271Z,43.81
2022-10-21T10:11:02.541Z,43.71
2022-10-21T10:13:32.305Z,44.16
2022-10-21T10:16:14.171Z,43.33
2022-10-21T10:18:43.395Z,42.80
2022-10-21T10:21:13.227Z,42.58
2022-10-21T10:23:45.091Z,42.73
2022-10-21T10:26:22.240Z,43.61
2022-10-21T10:28:53.509Z,43.13
2022-10-21T10:31:31.487Z,43.11
2022-10-21T10:34:03.919Z,42.45
2022-10-21T10:36:37.638Z,42.76
2022-10-21T10:39:10.866Z,41.98
2022-10-21T10:41:40.676Z,41.51
2022-10-21T10:44:15.472Z,41.59
2022-10-21T10:46:44.035Z,41.85
2022-10-21T10:49:21.649Z,40.99
2022-10-21T10:52:05.319Z,41.32
2022-10-21T10:54:39.002Z,41.61
2022-10-21T10:57:07.915Z,41.23
2022-10-21T10:59:41.824Z,41.73
2022-10-21T11:02:22.435Z,41.83
2022-10-21T11:07:36.846Z,41.39
2022-10-21T11:10:08.819Z,41.64
2022-10-21T11:12:38.649Z,42.21
2022-10-21T11:15:08.696Z,41.92
2022-10-21T11:17:38.969Z,41.23
2022-10-21T11:20:08.696Z,41.41
2022-10-21T11:22:42.022Z,41.60
2022-10-21T11:25:17.622Z,41.06
2022-10-21T11:28:15.148Z,40.66
2022-10-21T11:30:48.842Z,41.09
2022-10-21T11:33:19.207Z,40.56
2022-10-21T11:35:53.043Z,41.16
2022-10-21T11:38:28.757Z,40.17
2022-10-21T11:41:02.158Z,41.07
2022-10-21T11:43:33.875Z,40.71
2022-10-21T11:46:09.950Z,41.20
2022-10-21T11:48:43.132Z,41.46
2022-10-21T11:51:16.634Z,40.35
2022-10-21T11:53:51.955Z,40.60
2022-10-21T11:56:23.354Z,40.74
2022-10-21T11:59:01.606Z,41.16
2022-10-21T12:01:31.386Z,40.36
2022-10-21T12:04:08.141Z,40.72
2022-10-21T12:06:39.487Z,40.54
2022-10-21T12:09:18.471Z,40.08
2022-10-21T12:11:48.110Z,39.03
2022-10-21T12:14:26.553Z,39.21
2022-10-21T12:17:09.412Z,38.93
2022-10-21T12:19:40.207Z,38.50
2022-10-21T12:22:08.778Z,39.12
2022-10-21T12:24:43.470Z,39.63
2022-10-21T12:27:23.091Z,40.04
2022-10-21T12:29:56.462Z,39.25
2022-10-21T12:32:33.299Z,39.36
2022-10-21T12:35:10.199Z,39.56
2022-10-21T12:38:00.749Z,39.58
2022-10-21T12:40:38.748Z,40.03
2022-10-21T12:43:14.216Z,40.34
2022-10-21T12:45:42.814Z,39.84
2022-10-21T12:48:23.732Z,39.86
2022-10-21T12:50:58.830Z,40.20
2022-10-21T12:53:34.168Z,40.17
2022-10-21T12:56:08.320Z,39.40
2022-10-21T12:58:41.708Z,40.00
2022-10-21T13:01:35.918Z,40.15
2022-10-21T13:04:10.554Z,40.03
2022-10-21T13:06:49.442Z,39.92
2022-10-21T13:09:35.175Z,40.26
2022-10-21T13:12:07.092Z,39.89
2022-10-21T13:14:45.495Z,39.91
2022-10-21T13:17:26.512Z,39.70
2022-10-21T13:19:57.636Z,40.26
2022-10-21T13:22:38.520Z,40.14
2022-10-21T13:25:17.943Z,40.47
2022-10-21T13:27:53.215Z,40.14
2022-10-21T13:30:30.854Z,40.76
2022-10-21T13:33:02.091Z,40.25
2022-10-21T13:35:32.558Z,41.02
2022-10-21T13:38:08.162Z,40.60
2022-10-21T13:40:38.399Z,40.45
2022-10-21T13:43:09.818Z,40.32
2022-10-21T13:45:39.056Z,40.54
2022-10-21T13:48:13.506Z,39.98
2022-10-21T13:50:50.455Z,39.81
2022-10-21T13:53:26.231Z,40.41
2022-10-21T13:55:58.734Z,39.96
2022-10-21T13:58:34.408Z,40.32
2022-10-21T14:01:13.636Z,40.57
2022-10-21T14:03:45.597Z,40.60
2022-10-21T14:06:17.774Z,39.89
2022-10-21T14:08:47.461Z,39.55
2022-10-21T14:11:19.366Z,40.07
2022-10-21T14:13:50.669Z,39.68
2022-10-21T14:16:23.934Z,39.69
2022-10-21T14:18:52.498Z,39.55
2022-10-21T14:21:22.982Z,39.67
2022-10-21T14:23:51.628Z,39.82
2022-10-21T14:26:27.968Z,40.63
2022-10-21T14:28:57.872Z,40.78
2022-10-21T14:31:28.878Z,41.17
2022-10-21T14:33:57.499Z,40.86
2022-10-21T14:36:28.687Z,40.82
2022-10-21T14:39:04.140Z,40.89
2022-10-21T14:41:48.507Z,41.34
2022-10-21T14:44:22.463Z,40.92
2022-10-21T14:46:54.058Z,41.03
2022-10-21T14:49:23.679Z,41.07
2022-10-21T14:51:53.500Z,41.28
2022-10-21T14:54:25.820Z,41.51
2022-10-21T14:56:54.599Z,42.28
2022-10-21T14:59:25.637Z,42.41
2022-10-21T15:01:56.093Z,42.45
2022-10-21T15:04:45.564Z,42.35
2022-10-21T15:07:18.141Z,42.51
2022-10-21T15:09:59.436Z,42.58
2022-10-21T15:12:33.178Z,42.41
2022-10-21T15:15:07.565Z,42.71
2022-10-21T15:17:37.937Z,42.58
2022-10-21T15:20:14.754Z,43.10
2022-10-21T15:22:43.981Z,42.97
2022-10-21T15:25:15.758Z,42.79
2022-10-21T15:27:45.636Z,43.03
2022-10-21T15:30:18.914Z,43.16
2022-10-21T15:32:55.394Z,43.48
2022-10-21T15:35:25.497Z,43.03
2022-10-21T15:37:56.923Z,43.46
2022-10-21T15:40:25.501Z,43.74
2022-10-21T15:42:57.054Z,43.54
2022-10-21T15:45:25.439Z,43.56
2022-10-21T15:47:57.049Z,42.97
2022-10-21T15:50:27.557Z,43.53
2022-10-21T15:52:59.558Z,43.61
2022-10-21T15:55:30.547Z,44.09
2022-10-21T15:57:59.099Z,44.76
2022-10-21T16:00:27.430Z,44.29
2022-10-21T16:03:01.545Z,44.72
2022-10-21T16:05:32.578Z,44.51
2022-10-21T16:08:02.794Z,44.59
2022-10-21T16:10:32.375Z,45.39
2022-10-21T16:13:03.147Z,45.29
2022-10-21T16:15:31.420Z,45.02
2022-10-21T16:18:04.396Z,44.95
2022-10-21T16:20:36.356Z,45.09
2022-10-21T16:23:06.006Z,45.15
2022-10-21T16:25:35.027Z,45.61
2022-10-21T16:28:05.331Z,45.87
2022-10-21T16:30:34.854Z,46.16
2022-10-21T16:33:03.722Z,45.92
2022-10-21T16:35:34.292Z,45.90
2022-10-21T16:38:06.642Z,45.92
2022-10-21T16:40:37.211Z,46.44
2022-10-21T16:43:13.189Z,46.82
2022-10-21T16:45:42.444Z,46.27
2022-10-21T16:48:12.571Z,46.21
2022-10-21T16:53:41.284Z,46.03
2022-10-21T16:56:09.721Z,47.05
2022-10-21T16:58:47.537Z,47.38
2022-10-21T17:01:24.779Z,46.95
2022-10-21T17:03:54.020Z,46.72
2022-10-21T17:06:24.949Z,46.59
2022-10-21T17:08:54.584Z,47.05
2022-10-21T17:11:24.176Z,47.89
2022-10-21T17:13:53.094Z,47.55
2022-10-21T17:16:21.994Z,47.11
2022-10-21T17:18:51.303Z,46.62
2022-10-21T17:21:26.628Z,46.82
2022-10-21T17:23:57.331Z,47.10
2022-10-21T17:26:30.306Z,47.28
2022-10-21T17:29:00.298Z,47.31
2022-10-21T17:31:31.153Z,47.50
2022-10-21T17:34:02.143Z,47.89
2022-10-21T17:36:32.080Z,47.56
2022-10-21T17:39:04.057Z,48.04
2022-10-21T17:41:32.764Z,47.75
2022-10-21T17:44:01.947Z,48.46
2022-10-21T17:46:31.928Z,48.54
2022-10-21T17:49:01.769Z,48.52
2022-10-21T17:51:36.292Z,47.56
2022-10-21T17:54:08.200Z,47.97
2022-10-21T17:56:37.034Z,47.75
2022-10-21T17:59:06.092Z,48.08
2022-10-21T18:01:38.724Z,48.24
2022-10-21T18:04:07.986Z,47.93
2022-10-21T18:06:40.999Z,47.90
2022-10-21T18:09:11.782Z,48.16
2022-10-21T18:11:41.374Z,48.28
2022-10-21T18:14:10.436Z,47.98
2022-10-21T18:16:45.999Z,48.61
2022-10-21T18:19:15.222Z,48.52
2022-10-21T18:21:45.335Z,48.68
2022-10-21T18:24:15.390Z,48.01
2022-10-21T18:26:45.573Z,48.72
2022-10-21T18:29:15.621Z,48.88
2022-10-21T18:31:47.434Z,48.63
2022-10-21T18:34:16.126Z,48.47
2022-10-21T18:36:48.928Z,48.33
2022-10-21T18:39:19.036Z,48.55
2022-10-21T18:41:49.595Z,48.63
2022-10-21T18:44:18.654Z,48.46
2022-10-21T18:46:55.269Z,48.62
2022-10-21T18:49:26.446Z,48.71
2022-10-21T18:51:55.441Z,48.34
2022-10-21T18:54:25.423Z,48.34
2022-10-21T18:56:54.852Z,48.92
2022-10-21T18:59:23.795Z,49.00
2022-10-21T19:01:57.353Z,49.26
2022-10-21T19:04:27.353Z,48.68
2022-10-21T19:06:59.189Z,48.44
2022-10-21T19:09:30.223Z,49.18
2022-10-21T19:12:04.411Z,49.28
2022-10-21T19:14:35.170Z,49.44
2022-10-21T19:17:05.510Z,49.42
2022-10-21T19:19:39.366Z,48.87
2022-10-21T19:22:08.640Z,49.06
2022-10-21T19:24:44.069Z,49.38
2022-10-21T19:27:14.505Z,48.98
2022-10-21T19:29:45.552Z,49.06
2022-10-21T19:32:15.887Z,49.19
2022-10-21T19:34:45.171Z,49.61
2022-10-21T19:37:14.876Z,49.60
2022-10-21T19:39:46.503Z,49.19
2022-10-21T19:42:17.149Z,49.58
2022-10-21T19:44:47.499Z,49.58
2022-10-21T19:47:16.497Z,49.27
2022-10-21T19:49:50.810Z,49.97
2022-10-21T19:52:33.092Z,50.29
2022-10-21T19:55:02.048Z,49.85
2022-10-21T19:57:35.570Z,50.23
2022-10-21T20:00:05.460Z,50.39
2022-10-21T20:02:41.260Z,50.67
2022-10-21T20:05:10.605Z,50.12
2022-10-21T20:07:41.770Z,50.55
2022-10-21T20:10:19.028Z,50.75
2022-10-21T20:12:50.005Z,51.08
2022-10-21T20:15:20.508Z,50.58
2022-10-21T20:17:49.156Z,50.50
2022-10-21T20:20:18.060Z,50.56
2022-10-21T20:22:50.266Z,50.26
2022-10-21T20:25:25.385Z,50.65
2022-10-21T20:27:56.276Z,51.05
2022-10-21T20:30:24.777Z,50.86
2022-10-21T20:32:54.022Z,50.43
2022-10-21T20:35:23.342Z,50.45
2022-10-21T20:37:53.751Z,50.72
2022-10-21T20:40:22.611Z,50.70
2022-10-21T20:42:55.589Z,50.96
2022-10-21T20:45:30.830Z,51.09
2022-10-21T20:48:01.147Z,51.46
2022-10-21T20:50:30.675Z,51.45
2022-10-21T20:52:59.231Z,52.01
2022-10-21T20:55:30.845Z,52.25
2022-10-21T21:00:30.275Z,52.32
2022-10-21T21:03:02.281Z,51.05
2022-10-21T21:05:38.159Z,51.18
2022-10-21T21:08:07.728Z,51.36
2022-10-21T21:10:46.122Z,51.31
2022-10-21T21:13:20.703Z,51.52
2022-10-21T21:15:50.991Z,51.47
2022-10-21T21:18:19.852Z,50.89
2022-10-21T21:20:49.003Z,51.15
2022-10-21T21:23:18.695Z,50.33
2022-10-21T21:25:48.105Z,50.36
2022-10-21T21:28:21.910Z,50.69
2022-10-21T21:30:54.892Z,51.03
2022-10-21T21:33:25.557Z,50.43
2022-10-21T21:35:56.229Z,50.35
2022-10-21T21:38:25.725Z,50.92
2022-10-21T21:40:55.382Z,50.68
2022-10-21T21:43:27.929Z,50.64
2022-10-21T21:46:00.915Z,50.65
2022-10-21T21:48:33.143Z,50.90
2022-10-21T21:51:02.566Z,51.09
2022-10-21T21:53:31.506Z,50.81
2022-10-21T21:56:03.292Z,50.65
2022-10-21T21:58:35.390Z,50.75
2022-10-21T22:01:14.632Z,51.27
2022-10-21T22:03:43.535Z,51.27
2022-10-21T22:06:13.758Z,50.93
2022-10-21T22:08:44.870Z,51.64
2022-10-21T22:11:17.326Z,51.84
2022-10-21T22:13:46.180Z,52.61
2022-10-21T22:16:20.164Z,52.68
2022-10-21T22:18:48.533Z,53.18
2022-10-21T22:21:20.945Z,51.44
2022-10-21T22:23:50.032Z,51.16
2022-10-21T22:26:21.841Z,52.15
2022-10-21T22:28:50.558Z,52.48
2022-10-21T22:31:28.920Z,52.76
2022-10-21T22:34:05.476Z,53.28
2022-10-21T22:36:36.698Z,52.36
2022-10-21T22:39:07.724Z,52.58
2022-10-21T22:41:36.640Z,52.92
2022-10-21T22:44:05.470Z,53.06
2022-10-21T22:46:35.420Z,52.95
2022-10-21T22:49:09.462Z,53.10
2022-10-21T22:51:37.843Z,53.07
2022-10-21T22:54:15.188Z,53.33
2022-10-21T22:56:51.525Z,52.68
2022-10-21T22:59:20.362Z,52.85
2022-10-21T23:01:57.844Z,52.07
2022-10-21T23:04:26.801Z,53.31
2022-10-21T23:06:57.842Z,53.25
2022-10-21T23:09:26.370Z,53.75
2022-10-21T23:11:55.876Z,54.35
2022-10-21T23:14:24.457Z,53.99
2022-10-21T23:16:58.505Z,53.70
2022-10-21T23:19:27.158Z,54.05
2022-10-21T23:21:56.593Z,54.42
2022-10-21T23:24:25.689Z,54.69
2022-10-21T23:26:59.060Z,55.18
2022-10-21T23:29:30.838Z,54.92
2022-10-21T23:32:01.052Z,54.96
2022-10-21T23:34:30.033Z,54.82
2022-10-21T23:37:01.922Z,54.94
2022-10-21T23:39:30.584Z,55.21
2022-10-21T23:42:05.306Z,55.31
2022-10-21T23:44:35.925Z,55.37
2022-10-21T23:47:09.313Z,55.39
2022-10-21T23:49:38.000Z,55.50
2022-10-21T23:52:07.560Z,55.75
2022-10-21T23:54:35.922Z,55.49
2022-10-21T23:57:13.101Z,55.42
2022-10-21T23:59:41.355Z,55.64
